sensor_id;sensor_type;location;lat;lon;timestamp;pressure;altitude;pressure_sealevel;temperature;humidity
13709;BME280;54933;51.908;7.730;2023-07-31T00:00:57;100351.78;;;24.63;77.29
13709;BME280;54933;51.908;7.730;2023-07-31T00:03:23;100352.56;;;24.64;77.16
13709;BME280;54933;51.908;7.730;2023-07-31T00:05:48;100363.44;;;24.64;77.07
13709;BME280;54933;51.908;7.730;2023-07-31T00:08:13;100361.81;;;24.63;77.01
13709;BME280;54933;51.908;7.730;2023-07-31T00:10:38;100363.69;;;24.62;77.13
13709;BME280;54933;51.908;7.730;2023-07-31T00:13:04;100356.38;;;24.63;77.03
13709;BME280;54933;51.908;7.730;2023-07-31T00:15:29;100361.81;;;24.63;77.12
13709;BME280;54933;51.908;7.730;2023-07-31T00:17:54;100363.69;;;24.62;77.06
13709;BME280;54933;51.908;7.730;2023-07-31T00:20:20;100360.97;;;24.62;76.94
13709;BME280;54933;51.908;7.730;2023-07-31T00:22:45;100347.66;;;24.61;77.07
13709;BME280;54933;51.908;7.730;2023-07-31T00:25:10;100355.53;;;24.62;77.13
13709;BME280;54933;51.908;7.730;2023-07-31T00:27:35;100346.59;;;24.62;77.20
13709;BME280;54933;51.908;7.730;2023-07-31T00:30:01;100346.59;;;24.62;77.11
13709;BME280;54933;51.908;7.730;2023-07-31T00:32:26;100348.47;;;24.61;77.17
13709;BME280;54933;51.908;7.730;2023-07-31T00:34:51;100355.53;;;24.62;77.28
13709;BME280;54933;51.908;7.730;2023-07-31T00:37:16;100343.63;;;24.63;77.01
13709;BME280;54933;51.908;7.730;2023-07-31T00:39:42;100344.69;;;24.62;77.01
13709;BME280;54933;51.908;7.730;2023-07-31T00:42:07;100338.19;;;24.63;77.09
13709;BME280;54933;51.908;7.730;2023-07-31T00:44:33;100340.06;;;24.63;76.98
13709;BME280;54933;51.908;7.730;2023-07-31T00:46:58;100339.25;;;24.62;76.98
13709;BME280;54933;51.908;7.730;2023-07-31T00:49:25;100340.06;;;24.63;77.19
13709;BME280;54933;51.908;7.730;2023-07-31T00:51:50;100336.28;;;24.64;77.27
13709;BME280;54933;51.908;7.730;2023-07-31T00:54:16;100335.47;;;24.63;77.07
13709;BME280;54933;51.908;7.730;2023-07-31T00:56:42;100330.84;;;24.64;77.42
13709;BME280;54933;51.908;7.730;2023-07-31T00:59:09;100330.84;;;24.64;77.26
13709;BME280;54933;51.908;7.730;2023-07-31T01:01:35;100326.50;;;24.63;77.21
13709;BME280;54933;51.908;7.730;2023-07-31T01:04:00;100322.69;;;24.64;77.10
13709;BME280;54933;51.908;7.730;2023-07-31T01:06:37;100323.78;;;24.63;77.38
13709;BME280;54933;51.908;7.730;2023-07-31T01:11:57;100321.06;;;24.63;77.33
13709;BME280;54933;51.908;7.730;2023-07-31T01:14:22;100319.97;;;24.64;77.38
13709;BME280;54933;51.908;7.730;2023-07-31T01:16:47;100314.53;;;24.64;77.10
13709;BME280;54933;51.908;7.730;2023-07-31T01:19:14;100314.53;;;24.64;77.27
13709;BME280;54933;51.908;7.730;2023-07-31T01:27:23;100310.19;;;24.63;77.19
13709;BME280;54933;51.908;7.730;2023-07-31T01:30:00;100308.31;;;24.63;77.30
13709;BME280;54933;51.908;7.730;2023-07-31T01:32:29;100305.59;;;24.63;77.40
13709;BME280;54933;51.908;7.730;2023-07-31T01:34:55;100302.03;;;24.63;77.20
13709;BME280;54933;51.908;7.730;2023-07-31T01:37:21;100296.59;;;24.63;77.46
13709;BME280;54933;51.908;7.730;2023-07-31T01:39:47;100295.78;;;24.62;77.36
13709;BME280;54933;51.908;7.730;2023-07-31T01:42:12;100296.59;;;24.63;77.26
13709;BME280;54933;51.908;7.730;2023-07-31T01:44:37;100289.53;;;24.62;77.25
13709;BME280;54933;51.908;7.730;2023-07-31T01:47:02;100283.28;;;24.61;77.32
13709;BME280;54933;51.908;7.730;2023-07-31T01:49:28;100286.00;;;24.61;77.20
13709;BME280;54933;51.908;7.730;2023-07-31T01:51:53;100283.28;;;24.61;77.23
13709;BME280;54933;51.908;7.730;2023-07-31T01:54:18;100282.44;;;24.61;77.11
13709;BME280;54933;51.908;7.730;2023-07-31T01:56:43;100277.00;;;24.61;77.13
13709;BME280;54933;51.908;7.730;2023-07-31T01:59:09;100271.56;;;24.61;76.88
13709;BME280;54933;51.908;7.730;2023-07-31T02:01:34;100270.78;;;24.60;77.30
13709;BME280;54933;51.908;7.730;2023-07-31T02:03:59;100268.84;;;24.61;77.10
13709;BME280;54933;51.908;7.730;2023-07-31T02:06:25;100274.28;;;24.61;76.77
13709;BME280;54933;51.908;7.730;2023-07-31T02:08:50;100266.97;;;24.61;76.90
13709;BME280;54933;51.908;7.730;2023-07-31T02:11:15;100260.72;;;24.61;77.04
13709;BME280;54933;51.908;7.730;2023-07-31T02:13:40;100256.94;;;24.62;77.12
13709;BME280;54933;51.908;7.730;2023-07-31T02:16:06;100257.75;;;24.62;76.96
13709;BME280;54933;51.908;7.730;2023-07-31T02:18:31;100246.31;;;24.60;77.08
13709;BME280;54933;51.908;7.730;2023-07-31T02:20:56;100247.38;;;24.59;77.01
13709;BME280;54933;51.908;7.730;2023-07-31T02:23:21;100253.66;;;24.60;77.09
13709;BME280;54933;51.908;7.730;2023-07-31T02:25:47;100249.03;;;24.60;76.85
13709;BME280;54933;51.908;7.730;2023-07-31T02:28:12;100246.56;;;24.59;76.92
13709;BME280;54933;51.908;7.730;2023-07-31T02:30:38;100248.22;;;24.60;77.62
13709;BME280;54933;51.908;7.730;2023-07-31T02:33:04;100253.66;;;24.60;76.90
13709;BME280;54933;51.908;7.730;2023-07-31T02:35:30;100241.69;;;24.61;77.03
13709;BME280;54933;51.908;7.730;2023-07-31T02:37:55;100250.66;;;24.61;77.07
13709;BME280;54933;51.908;7.730;2023-07-31T02:40:20;100250.66;;;24.61;77.02
13709;BME280;54933;51.908;7.730;2023-07-31T02:42:46;100247.97;;;24.61;77.19
13709;BME280;54933;51.908;7.730;2023-07-31T02:45:11;100245.25;;;24.61;77.14
13709;BME280;54933;51.908;7.730;2023-07-31T02:47:36;100242.25;;;24.63;77.03
13709;BME280;54933;51.908;7.730;2023-07-31T02:50:05;100246.06;;;24.62;76.98
13709;BME280;54933;51.908;7.730;2023-07-31T02:52:31;100246.06;;;24.62;77.10
13709;BME280;54933;51.908;7.730;2023-07-31T02:54:57;100248.78;;;24.62;77.45
13709;BME280;54933;51.908;7.730;2023-07-31T02:57:22;100246.88;;;24.62;76.95
13709;BME280;54933;51.908;7.730;2023-07-31T02:59:47;100241.44;;;24.62;77.19
13709;BME280;54933;51.908;7.730;2023-07-31T03:02:13;100240.38;;;24.63;77.27
13709;BME280;54933;51.908;7.730;2023-07-31T03:04:39;100242.25;;;24.63;77.36
13709;BME280;54933;51.908;7.730;2023-07-31T03:07:05;100235.19;;;24.62;77.42
13709;BME280;54933;51.908;7.730;2023-07-31T03:09:30;100236.00;;;24.62;77.17
13709;BME280;54933;51.908;7.730;2023-07-31T03:11:55;100231.41;;;24.63;77.44
13709;BME280;54933;51.908;7.730;2023-07-31T03:14:21;100233.03;;;24.64;77.26
13709;BME280;54933;51.908;7.730;2023-07-31T03:16:46;100237.66;;;24.63;77.47
13709;BME280;54933;51.908;7.730;2023-07-31T03:19:11;100240.63;;;24.62;77.33
13709;BME280;54933;51.908;7.730;2023-07-31T03:21:36;100246.88;;;24.62;77.57
13709;BME280;54933;51.908;7.730;2023-07-31T03:24:02;100246.06;;;24.62;77.26
13709;BME280;54933;51.908;7.730;2023-07-31T03:26:27;100236.84;;;24.63;77.37
13709;BME280;54933;51.908;7.730;2023-07-31T03:28:52;100236.00;;;24.62;77.04
13709;BME280;54933;51.908;7.730;2023-07-31T03:31:17;100239.81;;;24.61;77.50
13709;BME280;54933;51.908;7.730;2023-07-31T03:33:43;100235.19;;;24.62;77.52
13709;BME280;54933;51.908;7.730;2023-07-31T03:36:08;100238.97;;;24.61;77.38
13709;BME280;54933;51.908;7.730;2023-07-31T03:38:34;100235.19;;;24.62;77.18
13709;BME280;54933;51.908;7.730;2023-07-31T03:41:00;100233.53;;;24.61;76.94
13709;BME280;54933;51.908;7.730;2023-07-31T03:43:25;100231.66;;;24.61;77.24
13709;BME280;54933;51.908;7.730;2023-07-31T03:45:50;100236.25;;;24.61;77.18
13709;BME280;54933;51.908;7.730;2023-07-31T03:48:15;100236.25;;;24.61;77.05
13709;BME280;54933;51.908;7.730;2023-07-31T03:50:41;100235.69;;;24.59;77.28
13709;BME280;54933;51.908;7.730;2023-07-31T03:53:06;100223.75;;;24.60;77.15
13709;BME280;54933;51.908;7.730;2023-07-31T03:55:32;100232.75;;;24.60;76.81
13709;BME280;54933;51.908;7.730;2023-07-31T03:57:57;100231.91;;;24.60;77.20
13709;BME280;54933;51.908;7.730;2023-07-31T04:00:22;100221.88;;;24.60;77.19
13709;BME280;54933;51.908;7.730;2023-07-31T04:02:48;100231.06;;;24.59;77.12
13709;BME280;54933;51.908;7.730;2023-07-31T04:05:13;100221.03;;;24.60;77.21
13709;BME280;54933;51.908;7.730;2023-07-31T04:07:38;100229.19;;;24.60;77.11
13709;BME280;54933;51.908;7.730;2023-07-31T04:10:04;100224.00;;;24.58;77.17
13709;BME280;54933;51.908;7.730;2023-07-31T04:12:29;100232.97;;;24.59;77.01
13709;BME280;54933;51.908;7.730;2023-07-31T04:14:54;100239.47;;;24.58;76.94
13709;BME280;54933;51.908;7.730;2023-07-31T04:17:20;100234.06;;;24.58;76.97
13709;BME280;54933;51.908;7.730;2023-07-31T04:19:45;100230.25;;;24.59;77.21
13709;BME280;54933;51.908;7.730;2023-07-31T04:22:10;100235.69;;;24.59;77.02
13709;BME280;54933;51.908;7.730;2023-07-31T04:24:36;100242.78;;;24.60;76.98
13709;BME280;54933;51.908;7.730;2023-07-31T04:27:01;100235.69;;;24.59;77.03
13709;BME280;54933;51.908;7.730;2023-07-31T04:29:26;100229.19;;;24.60;76.98
13709;BME280;54933;51.908;7.730;2023-07-31T04:31:52;100230.03;;;24.60;77.10
13709;BME280;54933;51.908;7.730;2023-07-31T04:34:17;100236.50;;;24.59;77.04
13709;BME280;54933;51.908;7.730;2023-07-31T04:36:42;100231.91;;;24.60;77.08
13709;BME280;54933;51.908;7.730;2023-07-31T04:39:07;100237.34;;;24.60;77.14
13709;BME280;54933;51.908;7.730;2023-07-31T04:41:33;100234.38;;;24.61;77.25
13709;BME280;54933;51.908;7.730;2023-07-31T04:43:58;100230.81;;;24.61;77.19
13709;BME280;54933;51.908;7.730;2023-07-31T04:46:23;100230.81;;;24.61;77.29
13709;BME280;54933;51.908;7.730;2023-07-31T04:48:49;100228.09;;;24.61;77.25
13709;BME280;54933;51.908;7.730;2023-07-31T04:51:14;100233.53;;;24.61;77.30
13709;BME280;54933;51.908;7.730;2023-07-31T04:53:39;100228.09;;;24.61;77.33
13709;BME280;54933;51.908;7.730;2023-07-31T04:56:04;100228.94;;;24.61;77.09
13709;BME280;54933;51.908;7.730;2023-07-31T04:58:30;100238.97;;;24.61;77.31
13709;BME280;54933;51.908;7.730;2023-07-31T05:00:55;100238.97;;;24.61;77.27
13709;BME280;54933;51.908;7.730;2023-07-31T05:03:20;100233.53;;;24.61;77.34
13709;BME280;54933;51.908;7.730;2023-07-31T05:05:47;100238.97;;;24.61;77.31
13709;BME280;54933;51.908;7.730;2023-07-31T05:08:12;100235.47;;;24.60;77.29
13709;BME280;54933;51.908;7.730;2023-07-31T05:10:37;100226.47;;;24.60;77.29
13709;BME280;54933;51.908;7.730;2023-07-31T05:13:03;100238.97;;;24.61;77.25
13709;BME280;54933;51.908;7.730;2023-07-31T05:15:28;100233.53;;;24.61;77.45
13709;BME280;54933;51.908;7.730;2023-07-31T05:17:53;100238.97;;;24.61;77.38
13709;BME280;54933;51.908;7.730;2023-07-31T05:20:19;100226.47;;;24.60;77.40
13709;BME280;54933;51.908;7.730;2023-07-31T05:22:44;100226.47;;;24.60;77.35
13709;BME280;54933;51.908;7.730;2023-07-31T05:25:09;100231.91;;;24.60;77.38
13709;BME280;54933;51.908;7.730;2023-07-31T05:27:35;100227.31;;;24.60;77.31
13709;BME280;54933;51.908;7.730;2023-07-31T05:30:00;100226.47;;;24.60;77.26
13709;BME280;54933;51.908;7.730;2023-07-31T05:32:25;100224.81;;;24.59;77.12
13709;BME280;54933;51.908;7.730;2023-07-31T05:34:51;100226.47;;;24.60;77.17
13709;BME280;54933;51.908;7.730;2023-07-31T05:37:17;100216.66;;;24.59;77.36
13709;BME280;54933;51.908;7.730;2023-07-31T05:39:42;100215.59;;;24.60;76.95
13709;BME280;54933;51.908;7.730;2023-07-31T05:42:08;100213.16;;;24.58;77.20
13709;BME280;54933;51.908;7.730;2023-07-31T05:44:33;100209.59;;;24.58;77.26
13709;BME280;54933;51.908;7.730;2023-07-31T05:46:58;100207.72;;;24.58;77.01
13709;BME280;54933;51.908;7.730;2023-07-31T05:49:24;100205.25;;;24.57;77.10
13709;BME280;54933;51.908;7.730;2023-07-31T05:51:49;100209.59;;;24.58;77.17
13709;BME280;54933;51.908;7.730;2023-07-31T05:54:14;100201.44;;;24.58;76.98
13709;BME280;54933;51.908;7.730;2023-07-31T05:56:39;100204.16;;;24.58;77.05
13709;BME280;54933;51.908;7.730;2023-07-31T05:59:05;100199.81;;;24.57;77.09
13709;BME280;54933;51.908;7.730;2023-07-31T06:01:30;100207.13;;;24.56;77.04
13709;BME280;54933;51.908;7.730;2023-07-31T06:03:55;100196.00;;;24.58;77.01
13709;BME280;54933;51.908;7.730;2023-07-31T06:06:20;100201.44;;;24.58;76.99
13709;BME280;54933;51.908;7.730;2023-07-31T06:08:46;100199.81;;;24.57;76.80
13709;BME280;54933;51.908;7.730;2023-07-31T06:11:11;100188.13;;;24.56;77.04
13709;BME280;54933;51.908;7.730;2023-07-31T06:13:36;100179.16;;;24.56;76.96
13709;BME280;54933;51.908;7.730;2023-07-31T06:16:02;100192.72;;;24.56;76.92
13709;BME280;54933;51.908;7.730;2023-07-31T06:18:31;100174.28;;;24.58;76.89
13709;BME280;54933;51.908;7.730;2023-07-31T06:20:56;100171.81;;;24.56;76.95
13709;BME280;54933;51.908;7.730;2023-07-31T06:23:22;100178.09;;;24.57;76.92
13709;BME280;54933;51.908;7.730;2023-07-31T06:25:47;100184.06;;;24.59;76.92
13709;BME280;54933;51.908;7.730;2023-07-31T06:28:12;100177.00;;;24.58;76.97
13709;BME280;54933;51.908;7.730;2023-07-31T06:30:37;100172.41;;;24.58;77.17
13709;BME280;54933;51.908;7.730;2023-07-31T06:33:03;100170.47;;;24.59;77.10
13709;BME280;54933;51.908;7.730;2023-07-31T06:35:28;100170.47;;;24.59;77.03
13709;BME280;54933;51.908;7.730;2023-07-31T06:37:53;100175.91;;;24.59;77.01
13709;BME280;54933;51.908;7.730;2023-07-31T06:40:18;100168.59;;;24.59;77.04
13709;BME280;54933;51.908;7.730;2023-07-31T06:42:44;100170.47;;;24.59;77.07
13709;BME280;54933;51.908;7.730;2023-07-31T06:45:10;100169.44;;;24.60;77.09
13709;BME280;54933;51.908;7.730;2023-07-31T06:47:35;100165.03;;;24.59;77.06
13709;BME280;54933;51.908;7.730;2023-07-31T06:50:02;100160.69;;;24.58;77.14
13709;BME280;54933;51.908;7.730;2023-07-31T06:52:28;100165.03;;;24.59;77.37
13709;BME280;54933;51.908;7.730;2023-07-31T06:55:01;100165.03;;;24.59;77.16
13709;BME280;54933;51.908;7.730;2023-07-31T06:57:27;100170.47;;;24.59;77.30
13709;BME280;54933;51.908;7.730;2023-07-31T06:59:52;100181.34;;;24.59;77.30
13709;BME280;54933;51.908;7.730;2023-07-31T07:02:18;100176.75;;;24.59;77.38
13709;BME280;54933;51.908;7.730;2023-07-31T07:04:43;100193.03;;;24.59;77.22
13709;BME280;54933;51.908;7.730;2023-07-31T07:07:08;100192.22;;;24.59;77.33
13709;BME280;54933;51.908;7.730;2023-07-31T07:09:33;100192.22;;;24.59;77.27
13709;BME280;54933;51.908;7.730;2023-07-31T07:11:59;100174.28;;;24.58;77.23
13709;BME280;54933;51.908;7.730;2023-07-31T07:14:24;100174.03;;;24.59;77.30
13709;BME280;54933;51.908;7.730;2023-07-31T07:16:52;100172.41;;;24.58;77.18
13709;BME280;54933;51.908;7.730;2023-07-31T07:19:18;100175.91;;;24.59;77.06
13709;BME280;54933;51.908;7.730;2023-07-31T07:21:43;100169.69;;;24.58;77.16
13709;BME280;54933;51.908;7.730;2023-07-31T07:24:08;100167.22;;;24.57;77.15
13709;BME280;54933;51.908;7.730;2023-07-31T07:26:33;100160.69;;;24.58;77.29
13709;BME280;54933;51.908;7.730;2023-07-31T07:28:59;100157.16;;;24.57;77.06
13709;BME280;54933;51.908;7.730;2023-07-31T07:31:26;100157.16;;;24.57;77.04
13709;BME280;54933;51.908;7.730;2023-07-31T07:33:52;100166.13;;;24.58;77.08
13709;BME280;54933;51.908;7.730;2023-07-31T07:36:17;100156.34;;;24.57;77.05
13709;BME280;54933;51.908;7.730;2023-07-31T07:38:42;100159.34;;;24.55;77.11
13709;BME280;54933;51.908;7.730;2023-07-31T07:41:07;100153.63;;;24.57;77.12
13709;BME280;54933;51.908;7.730;2023-07-31T07:43:33;100154.69;;;24.56;76.96
13709;BME280;54933;51.908;7.730;2023-07-31T07:45:58;100149.25;;;24.56;77.19
13709;BME280;54933;51.908;7.730;2023-07-31T07:48:23;100148.47;;;24.55;77.01
13709;BME280;54933;51.908;7.730;2023-07-31T07:50:50;100147.63;;;24.55;76.99
13709;BME280;54933;51.908;7.730;2023-07-31T07:53:15;100148.47;;;24.55;77.08
13709;BME280;54933;51.908;7.730;2023-07-31T07:55:40;100143.03;;;24.55;77.00
13709;BME280;54933;51.908;7.730;2023-07-31T07:58:06;100143.81;;;24.56;77.19
13709;BME280;54933;51.908;7.730;2023-07-31T08:00:31;100125.91;;;24.55;76.75
13709;BME280;54933;51.908;7.730;2023-07-31T08:02:56;100122.09;;;24.56;76.95
13709;BME280;54933;51.908;7.730;2023-07-31T08:05:23;100122.09;;;24.56;76.91
13709;BME280;54933;51.908;7.730;2023-07-31T08:07:48;100125.91;;;24.55;76.87
13709;BME280;54933;51.908;7.730;2023-07-31T08:10:13;100125.91;;;24.55;76.99
13709;BME280;54933;51.908;7.730;2023-07-31T08:12:39;100127.53;;;24.56;76.87
13709;BME280;54933;51.908;7.730;2023-07-31T08:15:05;100107.47;;;24.57;76.91
13709;BME280;54933;51.908;7.730;2023-07-31T08:17:30;100103.09;;;24.56;76.78
13709;BME280;54933;51.908;7.730;2023-07-31T08:19:55;100108.25;;;24.57;77.07
13709;BME280;54933;51.908;7.730;2023-07-31T08:22:23;100107.47;;;24.57;76.68
13709;BME280;54933;51.908;7.730;2023-07-31T08:24:48;100104.75;;;24.57;77.10
13709;BME280;54933;51.908;7.730;2023-07-31T08:27:13;100098.22;;;24.58;77.09
13709;BME280;54933;51.908;7.730;2023-07-31T08:29:39;100103.66;;;24.58;77.12
13709;BME280;54933;51.908;7.730;2023-07-31T08:32:04;100097.38;;;24.57;76.98
13709;BME280;54933;51.908;7.730;2023-07-31T08:34:30;100105.28;;;24.59;77.28
13709;BME280;54933;51.908;7.730;2023-07-31T08:36:55;100102.03;;;24.57;77.20
13709;BME280;54933;51.908;7.730;2023-07-31T08:39:20;100101.75;;;24.58;77.26
13709;BME280;54933;51.908;7.730;2023-07-31T08:41:45;100092.78;;;24.58;77.24
13709;BME280;54933;51.908;7.730;2023-07-31T08:44:11;100087.34;;;24.58;77.32
13709;BME280;54933;51.908;7.730;2023-07-31T08:46:37;100088.97;;;24.59;77.41
13709;BME280;54933;51.908;7.730;2023-07-31T08:49:07;100081.91;;;24.58;77.47
13709;BME280;54933;51.908;7.730;2023-07-31T08:51:34;100083.53;;;24.59;77.44
13709;BME280;54933;51.908;7.730;2023-07-31T08:54:00;100082.75;;;24.58;77.35
13709;BME280;54933;51.908;7.730;2023-07-31T08:56:25;100084.63;;;24.58;77.29
13709;BME280;54933;51.908;7.730;2023-07-31T08:58:52;100080.84;;;24.59;77.58
13709;BME280;54933;51.908;7.730;2023-07-31T09:01:19;100082.75;;;24.58;77.47
13709;BME280;54933;51.908;7.730;2023-07-31T09:03:45;100083.53;;;24.59;77.40
13709;BME280;54933;51.908;7.730;2023-07-31T09:06:12;100080.84;;;24.59;77.45
13709;BME280;54933;51.908;7.730;2023-07-31T09:08:41;100081.09;;;24.57;77.34
13709;BME280;54933;51.908;7.730;2023-07-31T09:11:07;100081.09;;;24.57;77.20
13709;BME280;54933;51.908;7.730;2023-07-31T09:13:33;100079.47;;;24.56;77.30
13709;BME280;54933;51.908;7.730;2023-07-31T09:15:58;100079.19;;;24.58;77.36
13709;BME280;54933;51.908;7.730;2023-07-31T09:18:24;100081.34;;;24.56;77.36
13709;BME280;54933;51.908;7.730;2023-07-31T09:21:03;100089.50;;;24.56;77.02
13709;BME280;54933;51.908;7.730;2023-07-31T09:23:43;100093.31;;;24.55;77.18
13709;BME280;54933;51.908;7.730;2023-07-31T09:26:09;100086.78;;;24.56;77.29
13709;BME280;54933;51.908;7.730;2023-07-31T09:28:35;100073.19;;;24.56;77.35
13709;BME280;54933;51.908;7.730;2023-07-31T09:31:00;100082.44;;;24.55;77.25
13709;BME280;54933;51.908;7.730;2023-07-31T09:33:26;100084.06;;;24.56;77.33
13709;BME280;54933;51.908;7.730;2023-07-31T09:35:51;100090.31;;;24.56;77.25
13709;BME280;54933;51.908;7.730;2023-07-31T09:38:16;100084.91;;;24.56;77.33
13709;BME280;54933;51.908;7.730;2023-07-31T09:40:44;100089.50;;;24.56;77.21
13709;BME280;54933;51.908;7.730;2023-07-31T09:43:12;100082.44;;;24.55;77.21
13709;BME280;54933;51.908;7.730;2023-07-31T09:45:40;100083.25;;;24.55;77.34
13709;BME280;54933;51.908;7.730;2023-07-31T09:48:17;100085.16;;;24.55;77.17
13709;BME280;54933;51.908;7.730;2023-07-31T09:50:44;100077.00;;;24.55;77.15
13709;BME280;54933;51.908;7.730;2023-07-31T09:53:10;100072.41;;;24.55;77.29
13709;BME280;54933;51.908;7.730;2023-07-31T09:55:36;100078.63;;;24.56;77.37
13709;BME280;54933;51.908;7.730;2023-07-31T09:58:08;100069.69;;;24.55;77.27
13709;BME280;54933;51.908;7.730;2023-07-31T10:00:34;100073.47;;;24.54;77.24
13709;BME280;54933;51.908;7.730;2023-07-31T10:03:01;100077.00;;;24.55;77.19
13709;BME280;54933;51.908;7.730;2023-07-31T10:05:33;100067.75;;;24.56;77.17
13709;BME280;54933;51.908;7.730;2023-07-31T10:07:59;100068.84;;;24.55;77.33
13709;BME280;54933;51.908;7.730;2023-07-31T10:10:24;100066.13;;;24.55;77.24
13709;BME280;54933;51.908;7.730;2023-07-31T10:12:52;100065.03;;;24.56;77.18
13709;BME280;54933;51.908;7.730;2023-07-31T10:15:19;100066.72;;;24.57;77.31
13709;BME280;54933;51.908;7.730;2023-07-31T10:17:47;100065.88;;;24.56;77.36
13709;BME280;54933;51.908;7.730;2023-07-31T10:20:14;100058.56;;;24.57;77.26
13709;BME280;54933;51.908;7.730;2023-07-31T10:22:41;100051.47;;;24.56;77.27
13709;BME280;54933;51.908;7.730;2023-07-31T10:25:08;100052.28;;;24.56;77.41
13709;BME280;54933;51.908;7.730;2023-07-31T10:27:35;100053.13;;;24.57;77.38
13709;BME280;54933;51.908;7.730;2023-07-31T10:30:03;100055.00;;;24.56;77.45
13709;BME280;54933;51.908;7.730;2023-07-31T10:32:30;100065.63;;;24.58;77.52
13709;BME280;54933;51.908;7.730;2023-07-31T10:34:55;100060.19;;;24.58;77.48
13709;BME280;54933;51.908;7.730;2023-07-31T10:37:29;100050.41;;;24.57;77.55
13709;BME280;54933;51.908;7.730;2023-07-31T10:40:03;100055.84;;;24.57;77.55
13709;BME280;54933;51.908;7.730;2023-07-31T10:42:34;100053.38;;;24.55;77.49
13709;BME280;54933;51.908;7.730;2023-07-31T10:45:09;100049.31;;;24.58;77.45
13709;BME280;54933;51.908;7.730;2023-07-31T10:48:16;100057.72;;;24.56;77.42
13709;BME280;54933;51.908;7.730;2023-07-31T10:50:52;100044.97;;;24.57;77.56
13709;BME280;54933;51.908;7.730;2023-07-31T10:53:38;100047.69;;;24.57;77.48
13709;BME280;54933;51.908;7.730;2023-07-31T10:56:08;100048.50;;;24.57;77.35
13709;BME280;54933;51.908;7.730;2023-07-31T10:58:36;100042.25;;;24.57;77.86
13709;BME280;54933;51.908;7.730;2023-07-31T11:01:05;100042.25;;;24.57;77.44
13709;BME280;54933;51.908;7.730;2023-07-31T11:03:51;100038.97;;;24.55;77.60
13709;BME280;54933;51.908;7.730;2023-07-31T11:06:17;100042.25;;;24.57;77.40
13709;BME280;54933;51.908;7.730;2023-07-31T11:08:45;100048.50;;;24.57;78.05
13709;BME280;54933;51.908;7.730;2023-07-31T11:11:12;100043.88;;;24.58;77.64
13709;BME280;54933;51.908;7.730;2023-07-31T11:13:49;100036.00;;;24.56;77.37
13709;BME280;54933;51.908;7.730;2023-07-31T11:16:15;100038.72;;;24.56;77.45
13709;BME280;54933;51.908;7.730;2023-07-31T11:18:45;100042.25;;;24.57;77.36
13709;BME280;54933;51.908;7.730;2023-07-31T11:21:18;100035.16;;;24.56;77.32
13709;BME280;54933;51.908;7.730;2023-07-31T11:23:48;100038.16;;;24.54;77.27
13709;BME280;54933;51.908;7.730;2023-07-31T11:26:14;100035.16;;;24.56;77.33
13709;BME280;54933;51.908;7.730;2023-07-31T11:28:40;100033.53;;;24.55;77.41
13709;BME280;54933;51.908;7.730;2023-07-31T11:31:09;100032.44;;;24.56;77.31
13709;BME280;54933;51.908;7.730;2023-07-31T11:33:34;100030.81;;;24.55;77.43
13709;BME280;54933;51.908;7.730;2023-07-31T11:35:59;100030.00;;;24.54;77.29
13709;BME280;54933;51.908;7.730;2023-07-31T11:38:32;100031.91;;;24.54;77.39
13709;BME280;54933;51.908;7.730;2023-07-31T11:41:03;100021.84;;;24.54;77.42
13709;BME280;54933;51.908;7.730;2023-07-31T11:43:30;100032.72;;;24.54;77.37
13709;BME280;54933;51.908;7.730;2023-07-31T11:45:59;100024.56;;;24.54;77.42
13709;BME280;54933;51.908;7.730;2023-07-31T11:48:25;100036.50;;;24.53;77.30
13709;BME280;54933;51.908;7.730;2023-07-31T11:50:53;100021.03;;;24.54;77.30
13709;BME280;54933;51.908;7.730;2023-07-31T11:53:23;100026.47;;;24.54;77.37
13709;BME280;54933;51.908;7.730;2023-07-31T11:55:50;100013.97;;;24.53;77.30
13709;BME280;54933;51.908;7.730;2023-07-31T11:58:16;100016.69;;;24.53;77.55
13709;BME280;54933;51.908;7.730;2023-07-31T12:00:41;100018.34;;;24.54;77.29
13709;BME280;54933;51.908;7.730;2023-07-31T12:03:07;100014.53;;;24.55;77.42
13709;BME280;54933;51.908;7.730;2023-07-31T12:05:32;100017.25;;;24.55;77.31
13709;BME280;54933;51.908;7.730;2023-07-31T12:07:58;100018.06;;;24.55;77.44
13709;BME280;54933;51.908;7.730;2023-07-31T12:10:30;100020.78;;;24.55;77.60
13709;BME280;54933;51.908;7.730;2023-07-31T12:13:01;100013.44;;;24.56;77.54
13709;BME280;54933;51.908;7.730;2023-07-31T12:15:40;100008.00;;;24.56;77.41
13709;BME280;54933;51.908;7.730;2023-07-31T12:18:10;100013.44;;;24.56;77.60
13709;BME280;54933;51.908;7.730;2023-07-31T12:20:40;100006.94;;;24.57;77.49
13709;BME280;54933;51.908;7.730;2023-07-31T12:23:07;99999.84;;;24.56;77.44
13709;BME280;54933;51.908;7.730;2023-07-31T12:25:33;100008.00;;;24.56;77.44
13709;BME280;54933;51.908;7.730;2023-07-31T12:28:04;100002.56;;;24.56;77.90
13709;BME280;54933;51.908;7.730;2023-07-31T12:30:32;100009.66;;;24.57;77.54
13709;BME280;54933;51.908;7.730;2023-07-31T12:33:03;100013.44;;;24.56;77.54
13709;BME280;54933;51.908;7.730;2023-07-31T12:35:35;100007.75;;;24.57;77.53
13709;BME280;54933;51.908;7.730;2023-07-31T12:38:01;100004.22;;;24.57;77.75
13709;BME280;54933;51.908;7.730;2023-07-31T12:40:27;100004.22;;;24.57;77.78
13709;BME280;54933;51.908;7.730;2023-07-31T12:42:52;100001.50;;;24.57;77.77
13709;BME280;54933;51.908;7.730;2023-07-31T12:45:18;100010.47;;;24.57;77.86
13709;BME280;54933;51.908;7.730;2023-07-31T12:47:43;99995.81;;;24.58;77.87
13709;BME280;54933;51.908;7.730;2023-07-31T12:50:09;100001.50;;;24.57;77.77
13709;BME280;54933;51.908;7.730;2023-07-31T12:52:34;99998.78;;;24.57;77.76
13709;BME280;54933;51.908;7.730;2023-07-31T12:54:59;99996.09;;;24.57;77.78